sensor_id;sensor_type;location;lat;lon;timestamp;temperature;humidity
33699;DHT22;20032;52.436;13.312;2023-09-19T00:02:16;18.70;99.90
33699;DHT22;20032;52.436;13.312;2023-09-19T00:04:42;18.70;99.90
33699;DHT22;20032;52.436;13.312;2023-09-19T00:07:08;18.70;99.90
33699;DHT22;20032;52.436;13.312;2023-09-19T00:09:34;18.80;99.90
33699;DHT22;20032;52.436;13.312;2023-09-19T00:12:05;18.70;99.90
33699;DHT22;20032;52.436;13.312;2023-09-19T00:14:30;18.60;99.90
33699;DHT22;20032;52.436;13.312;2023-09-19T00:16:59;18.60;99.90
33699;DHT22;20032;52.436;13.312;2023-09-19T00:19:26;18.60;99.90
33699;DHT22;20032;52.436;13.312;2023-09-19T00:21:51;18.60;99.90
33699;DHT22;20032;52.436;13.312;2023-09-19T00:24:18;18.60;99.90
33699;DHT22;20032;52.436;13.312;2023-09-19T00:26:43;18.60;99.90
33699;DHT22;20032;52.436;13.312;2023-09-19T00:29:11;18.50;99.90
33699;DHT22;20032;52.436;13.312;2023-09-19T00:31:39;18.40;99.90
33699;DHT22;20032;52.436;13.312;2023-09-19T00:34:04;18.40;99.90
33699;DHT22;20032;52.436;13.312;2023-09-19T00:36:31;18.50;99.90
33699;DHT22;20032;52.436;13.312;2023-09-19T00:38:56;18.40;99.90
33699;DHT22;20032;52.436;13.312;2023-09-19T00:41:22;18.40;99.90
33699;DHT22;20032;52.436;13.312;2023-09-19T00:43:50;18.40;99.90
33699;DHT22;20032;52.436;13.312;2023-09-19T00:46:17;18.40;99.90
33699;DHT22;20032;52.436;13.312;2023-09-19T00:48:43;18.40;99.90
33699;DHT22;20032;52.436;13.312;2023-09-19T00:51:08;18.40;99.90
33699;DHT22;20032;52.436;13.312;2023-09-19T00:53:34;18.40;99.90
33699;DHT22;20032;52.436;13.312;2023-09-19T00:56:00;18.40;99.90
33699;DHT22;20032;52.436;13.312;2023-09-19T00:58:25;18.40;99.90
33699;DHT22;20032;52.436;13.312;2023-09-19T01:00:51;18.40;99.90
33699;DHT22;20032;52.436;13.312;2023-09-19T01:03:18;18.40;99.90
33699;DHT22;20032;52.436;13.312;2023-09-19T01:05:44;18.30;99.90
33699;DHT22;20032;52.436;13.312;2023-09-19T01:08:09;18.30;99.90
33699;DHT22;20032;52.436;13.312;2023-09-19T01:10:40;18.30;99.90
33699;DHT22;20032;52.436;13.312;2023-09-19T01:13:09;18.30;99.90
33699;DHT22;20032;52.436;13.312;2023-09-19T01:15:40;18.30;99.90
33699;DHT22;20032;52.436;13.312;2023-09-19T01:18:52;18.20;99.90
33699;DHT22;20032;52.436;13.312;2023-09-19T01:21:35;18.20;99.90
33699;DHT22;20032;52.436;13.312;2023-09-19T01:26:30;18.10;99.90
33699;DHT22;20032;52.436;13.312;2023-09-19T01:28:30;18.10;99.90
33699;DHT22;20032;52.436;13.312;2023-09-19T01:30:14;18.10;99.90
33699;DHT22;20032;52.436;13.312;2023-09-19T01:32:42;18.10;99.90
33699;DHT22;20032;52.436;13.312;2023-09-19T01:35:08;18.10;99.90
33699;DHT22;20032;52.436;13.312;2023-09-19T01:37:38;18.10;99.90
33699;DHT22;20032;52.436;13.312;2023-09-19T01:40:06;18.20;99.90
33699;DHT22;20032;52.436;13.312;2023-09-19T01:42:39;18.20;99.90
33699;DHT22;20032;52.436;13.312;2023-09-19T01:46:30;18.30;99.90
33699;DHT22;20032;52.436;13.312;2023-09-19T01:48:19;18.30;99.90
33699;DHT22;20032;52.436;13.312;2023-09-19T01:50:55;18.20;99.90
33699;DHT22;20032;52.436;13.312;2023-09-19T01:53:26;18.20;99.90
33699;DHT22;20032;52.436;13.312;2023-09-19T01:55:54;18.20;99.90
33699;DHT22;20032;52.436;13.312;2023-09-19T01:58:26;18.20;99.90
33699;DHT22;20032;52.436;13.312;2023-09-19T02:00:55;18.20;99.90
33699;DHT22;20032;52.436;13.312;2023-09-19T02:03:22;18.20;99.90
33699;DHT22;20032;52.436;13.312;2023-09-19T02:05:49;18.10;99.90
33699;DHT22;20032;52.436;13.312;2023-09-19T02:08:17;18.10;99.90
33699;DHT22;20032;52.436;13.312;2023-09-19T02:10:43;18.10;99.90
33699;DHT22;20032;52.436;13.312;2023-09-19T02:13:16;18.00;99.90
33699;DHT22;20032;52.436;13.312;2023-09-19T02:15:42;18.00;99.90
33699;DHT22;20032;52.436;13.312;2023-09-19T02:18:09;18.00;99.90
33699;DHT22;20032;52.436;13.312;2023-09-19T02:20:34;18.00;99.90
33699;DHT22;20032;52.436;13.312;2023-09-19T02:23:00;18.00;99.90
33699;DHT22;20032;52.436;13.312;2023-09-19T02:25:26;18.00;99.90
33699;DHT22;20032;52.436;13.312;2023-09-19T02:27:52;18.00;99.90
33699;DHT22;20032;52.436;13.312;2023-09-19T02:30:19;17.90;99.90
33699;DHT22;20032;52.436;13.312;2023-09-19T02:32:46;18.00;99.90
33699;DHT22;20032;52.436;13.312;2023-09-19T02:35:12;18.00;99.90
33699;DHT22;20032;52.436;13.312;2023-09-19T02:37:37;17.90;99.90
33699;DHT22;20032;52.436;13.312;2023-09-19T02:40:03;18.00;99.90
33699;DHT22;20032;52.436;13.312;2023-09-19T02:42:43;17.90;99.90
33699;DHT22;20032;52.436;13.312;2023-09-19T02:45:13;17.90;99.90
33699;DHT22;20032;52.436;13.312;2023-09-19T02:47:40;17.90;99.90
33699;DHT22;20032;52.436;13.312;2023-09-19T02:50:06;17.90;99.90
33699;DHT22;20032;52.436;13.312;2023-09-19T02:52:31;17.90;99.90
33699;DHT22;20032;52.436;13.312;2023-09-19T02:54:57;17.90;99.90
33699;DHT22;20032;52.436;13.312;2023-09-19T02:57:22;17.90;99.90
33699;DHT22;20032;52.436;13.312;2023-09-19T02:59:49;17.90;99.90
33699;DHT22;20032;52.436;13.312;2023-09-19T03:02:15;17.90;99.90
33699;DHT22;20032;52.436;13.312;2023-09-19T03:04:41;17.80;99.90
33699;DHT22;20032;52.436;13.312;2023-09-19T03:07:06;17.80;99.90
33699;DHT22;20032;52.436;13.312;2023-09-19T03:09:32;17.90;99.90
33699;DHT22;20032;52.436;13.312;2023-09-19T03:11:57;17.90;99.90
33699;DHT22;20032;52.436;13.312;2023-09-19T03:14:23;17.90;99.90
33699;DHT22;20032;52.436;13.312;2023-09-19T03:16:49;17.90;99.90
33699;DHT22;20032;52.436;13.312;2023-09-19T03:19:14;17.90;99.90
33699;DHT22;20032;52.436;13.312;2023-09-19T03:21:40;17.90;99.90
33699;DHT22;20032;52.436;13.312;2023-09-19T03:24:06;17.80;99.90
33699;DHT22;20032;52.436;13.312;2023-09-19T03:26:31;17.80;99.90
33699;DHT22;20032;52.436;13.312;2023-09-19T03:28:58;17.80;99.90
33699;DHT22;20032;52.436;13.312;2023-09-19T03:31:24;17.80;99.90
33699;DHT22;20032;52.436;13.312;2023-09-19T03:33:49;17.80;99.90
33699;DHT22;20032;52.436;13.312;2023-09-19T03:36:14;17.80;99.90
33699;DHT22;20032;52.436;13.312;2023-09-19T03:38:40;17.70;99.90
33699;DHT22;20032;52.436;13.312;2023-09-19T03:41:05;17.70;99.90
33699;DHT22;20032;52.436;13.312;2023-09-19T03:43:32;17.60;99.90
33699;DHT22;20032;52.436;13.312;2023-09-19T03:46:01;17.60;99.90
33699;DHT22;20032;52.436;13.312;2023-09-19T03:48:28;17.60;99.90
33699;DHT22;20032;52.436;13.312;2023-09-19T03:50:54;17.50;99.90
33699;DHT22;20032;52.436;13.312;2023-09-19T03:53:21;17.50;99.90
33699;DHT22;20032;52.436;13.312;2023-09-19T03:55:47;17.60;99.90
33699;DHT22;20032;52.436;13.312;2023-09-19T03:58:12;17.50;99.90
33699;DHT22;20032;52.436;13.312;2023-09-19T04:00:38;17.50;99.90
33699;DHT22;20032;52.436;13.312;2023-09-19T04:03:04;17.60;99.90
33699;DHT22;20032;52.436;13.312;2023-09-19T04:05:31;17.50;99.90
33699;DHT22;20032;52.436;13.312;2023-09-19T04:07:58;17.50;99.90
33699;DHT22;20032;52.436;13.312;2023-09-19T04:10:24;17.50;99.90
33699;DHT22;20032;52.436;13.312;2023-09-19T04:12:52;17.50;99.90
33699;DHT22;20032;52.436;13.312;2023-09-19T04:15:19;17.50;99.90
33699;DHT22;20032;52.436;13.312;2023-09-19T04:17:44;17.50;99.90
33699;DHT22;20032;52.436;13.312;2023-09-19T04:20:10;17.50;99.90
33699;DHT22;20032;52.436;13.312;2023-09-19T04:22:37;17.50;99.90
33699;DHT22;20032;52.436;13.312;2023-09-19T04:25:04;17.50;99.90
33699;DHT22;20032;52.436;13.312;2023-09-19T04:27:29;17.50;99.90
33699;DHT22;20032;52.436;13.312;2023-09-19T04:29:55;17.50;99.90
33699;DHT22;20032;52.436;13.312;2023-09-19T04:32:24;17.50;99.90
33699;DHT22;20032;52.436;13.312;2023-09-19T04:34:50;17.40;99.90
33699;DHT22;20032;52.436;13.312;2023-09-19T04:37:16;17.40;99.90
33699;DHT22;20032;52.436;13.312;2023-09-19T04:39:41;17.30;99.90
33699;DHT22;20032;52.436;13.312;2023-09-19T04:42:07;17.30;99.90
33699;DHT22;20032;52.436;13.312;2023-09-19T04:44:32;17.40;99.90
33699;DHT22;20032;52.436;13.312;2023-09-19T04:46:58;17.40;99.90
33699;DHT22;20032;52.436;13.312;2023-09-19T04:49:24;17.30;99.90
33699;DHT22;20032;52.436;13.312;2023-09-19T04:51:50;17.30;99.90
33699;DHT22;20032;52.436;13.312;2023-09-19T04:54:15;17.40;99.90
33699;DHT22;20032;52.436;13.312;2023-09-19T04:56:41;17.40;99.90
33699;DHT22;20032;52.436;13.312;2023-09-19T04:59:06;17.40;99.90
33699;DHT22;20032;52.436;13.312;2023-09-19T05:01:32;17.30;99.90
33699;DHT22;20032;52.436;13.312;2023-09-19T05:03:57;17.30;99.90
33699;DHT22;20032;52.436;13.312;2023-09-19T05:06:23;17.30;99.90
33699;DHT22;20032;52.436;13.312;2023-09-19T05:08:49;17.30;99.90
33699;DHT22;20032;52.436;13.312;2023-09-19T05:11:17;17.30;99.90
33699;DHT22;20032;52.436;13.312;2023-09-19T05:13:43;17.20;99.90
33699;DHT22;20032;52.436;13.312;2023-09-19T05:16:09;17.10;99.90
33699;DHT22;20032;52.436;13.312;2023-09-19T05:18:35;17.20;99.90
33699;DHT22;20032;52.436;13.312;2023-09-19T05:21:02;17.20;99.90
33699;DHT22;20032;52.436;13.312;2023-09-19T05:23:28;17.20;99.90
33699;DHT22;20032;52.436;13.312;2023-09-19T05:25:55;17.20;99.90
33699;DHT22;20032;52.436;13.312;2023-09-19T05:28:22;17.20;99.90
33699;DHT22;20032;52.436;13.312;2023-09-19T05:30:48;17.20;99.90
33699;DHT22;20032;52.436;13.312;2023-09-19T05:33:14;17.20;99.90
33699;DHT22;20032;52.436;13.312;2023-09-19T05:35:43;17.20;99.90
33699;DHT22;20032;52.436;13.312;2023-09-19T05:38:11;17.20;99.90
33699;DHT22;20032;52.436;13.312;2023-09-19T05:40:39;17.10;99.90
33699;DHT22;20032;52.436;13.312;2023-09-19T05:43:08;17.10;99.90
33699;DHT22;20032;52.436;13.312;2023-09-19T05:45:35;17.20;99.90
33699;DHT22;20032;52.436;13.312;2023-09-19T05:48:18;17.20;99.90
33699;DHT22;20032;52.436;13.312;2023-09-19T05:50:46;17.20;99.90
33699;DHT22;20032;52.436;13.312;2023-09-19T05:53:14;17.10;99.90
33699;DHT22;20032;52.436;13.312;2023-09-19T05:55:40;17.20;99.90
33699;DHT22;20032;52.436;13.312;2023-09-19T05:58:06;17.10;99.90
33699;DHT22;20032;52.436;13.312;2023-09-19T06:00:31;17.20;99.90
33699;DHT22;20032;52.436;13.312;2023-09-19T06:02:58;17.20;99.90
33699;DHT22;20032;52.436;13.312;2023-09-19T06:05:25;17.10;99.90
33699;DHT22;20032;52.436;13.312;2023-09-19T06:07:52;17.10;99.90
33699;DHT22;20032;52.436;13.312;2023-09-19T06:10:18;17.10;99.90
33699;DHT22;20032;52.436;13.312;2023-09-19T06:12:46;17.10;99.90
33699;DHT22;20032;52.436;13.312;2023-09-19T06:15:13;17.10;99.90
33699;DHT22;20032;52.436;13.312;2023-09-19T06:17:43;17.20;99.90
33699;DHT22;20032;52.436;13.312;2023-09-19T06:20:08;17.20;99.90
33699;DHT22;20032;52.436;13.312;2023-09-19T06:22:38;17.20;99.90
33699;DHT22;20032;52.436;13.312;2023-09-19T06:25:04;17.20;99.90
33699;DHT22;20032;52.436;13.312;2023-09-19T06:27:29;17.30;99.90
33699;DHT22;20032;52.436;13.312;2023-09-19T06:29:55;17.30;99.90
33699;DHT22;20032;52.436;13.312;2023-09-19T06:32:27;17.40;99.90
33699;DHT22;20032;52.436;13.312;2023-09-19T06:34:52;17.30;99.90
33699;DHT22;20032;52.436;13.312;2023-09-19T06:37:20;17.40;99.90
33699;DHT22;20032;52.436;13.312;2023-09-19T06:39:46;17.50;99.90
33699;DHT22;20032;52.436;13.312;2023-09-19T06:42:13;17.50;99.90
33699;DHT22;20032;52.436;13.312;2023-09-19T06:44:39;17.50;99.90
33699;DHT22;20032;52.436;13.312;2023-09-19T06:47:04;17.50;99.90
33699;DHT22;20032;52.436;13.312;2023-09-19T06:49:32;17.50;99.90
33699;DHT22;20032;52.436;13.312;2023-09-19T06:51:59;17.60;99.90
33699;DHT22;20032;52.436;13.312;2023-09-19T06:54:24;17.70;99.90
33699;DHT22;20032;52.436;13.312;2023-09-19T06:56:49;17.80;99.90
33699;DHT22;20032;52.436;13.312;2023-09-19T06:59:15;17.80;99.90
33699;DHT22;20032;52.436;13.312;2023-09-19T07:01:41;18.00;99.90
33699;DHT22;20032;52.436;13.312;2023-09-19T07:04:09;18.10;99.90
33699;DHT22;20032;52.436;13.312;2023-09-19T07:06:35;18.20;99.90
33699;DHT22;20032;52.436;13.312;2023-09-19T07:09:01;18.30;99.90
33699;DHT22;20032;52.436;13.312;2023-09-19T07:11:26;18.40;99.90
33699;DHT22;20032;52.436;13.312;2023-09-19T07:13:51;18.50;99.90
33699;DHT22;20032;52.436;13.312;2023-09-19T07:16:17;18.60;99.90
33699;DHT22;20032;52.436;13.312;2023-09-19T07:18:53;18.70;99.90
33699;DHT22;20032;52.436;13.312;2023-09-19T07:21:19;18.80;99.90
33699;DHT22;20032;52.436;13.312;2023-09-19T07:23:44;18.70;99.90
33699;DHT22;20032;52.436;13.312;2023-09-19T07:26:10;18.70;99.90
33699;DHT22;20032;52.436;13.312;2023-09-19T07:28:35;18.80;99.90
33699;DHT22;20032;52.436;13.312;2023-09-19T07:31:02;18.80;99.90
33699;DHT22;20032;52.436;13.312;2023-09-19T07:33:28;18.80;99.90
33699;DHT22;20032;52.436;13.312;2023-09-19T07:35:54;18.70;99.90
33699;DHT22;20032;52.436;13.312;2023-09-19T07:38:20;18.70;99.90
33699;DHT22;20032;52.436;13.312;2023-09-19T07:40:46;18.70;99.90
33699;DHT22;20032;52.436;13.312;2023-09-19T07:43:12;18.80;99.90
33699;DHT22;20032;52.436;13.312;2023-09-19T07:45:38;18.70;99.90
33699;DHT22;20032;52.436;13.312;2023-09-19T07:48:03;18.60;99.90
33699;DHT22;20032;52.436;13.312;2023-09-19T07:50:34;18.50;99.90
33699;DHT22;20032;52.436;13.312;2023-09-19T07:53:02;18.60;99.90
33699;DHT22;20032;52.436;13.312;2023-09-19T07:55:30;18.70;99.90
33699;DHT22;20032;52.436;13.312;2023-09-19T07:57:56;18.90;99.90
33699;DHT22;20032;52.436;13.312;2023-09-19T08:00:21;19.10;99.90
33699;DHT22;20032;52.436;13.312;2023-09-19T08:02:47;19.10;99.90
33699;DHT22;20032;52.436;13.312;2023-09-19T08:05:14;19.20;99.90
33699;DHT22;20032;52.436;13.312;2023-09-19T08:07:43;19.20;99.90
33699;DHT22;20032;52.436;13.312;2023-09-19T08:10:09;18.90;99.90
33699;DHT22;20032;52.436;13.312;2023-09-19T08:12:39;18.90;99.90
33699;DHT22;20032;52.436;13.312;2023-09-19T08:15:15;18.90;99.90
33699;DHT22;20032;52.436;13.312;2023-09-19T08:17:40;18.90;99.90
33699;DHT22;20032;52.436;13.312;2023-09-19T08:20:07;18.90;99.90
33699;DHT22;20032;52.436;13.312;2023-09-19T08:22:33;18.80;99.90
33699;DHT22;20032;52.436;13.312;2023-09-19T08:24:58;18.60;99.90
33699;DHT22;20032;52.436;13.312;2023-09-19T08:27:24;18.60;99.90
33699;DHT22;20032;52.436;13.312;2023-09-19T08:29:53;18.50;99.90
33699;DHT22;20032;52.436;13.312;2023-09-19T08:32:18;18.60;99.90
33699;DHT22;20032;52.436;13.312;2023-09-19T08:34:49;18.50;99.90
33699;DHT22;20032;52.436;13.312;2023-09-19T08:37:15;18.50;99.90
33699;DHT22;20032;52.436;13.312;2023-09-19T08:39:41;18.60;99.90
33699;DHT22;20032;52.436;13.312;2023-09-19T08:42:06;18.70;99.90
33699;DHT22;20032;52.436;13.312;2023-09-19T08:44:36;18.80;99.90
33699;DHT22;20032;52.436;13.312;2023-09-19T08:47:11;18.70;99.90
33699;DHT22;20032;52.436;13.312;2023-09-19T08:52:28;18.70;99.90
33699;DHT22;20032;52.436;13.312;2023-09-19T08:54:59;18.60;99.90
33699;DHT22;20032;52.436;13.312;2023-09-19T08:57:33;18.70;99.90
33699;DHT22;20032;52.436;13.312;2023-09-19T09:00:02;18.80;99.90
33699;DHT22;20032;52.436;13.312;2023-09-19T09:02:31;18.90;99.90
33699;DHT22;20032;52.436;13.312;2023-09-19T09:04:59;18.90;99.90
33699;DHT22;20032;52.436;13.312;2023-09-19T09:07:25;18.90;99.90
33699;DHT22;20032;52.436;13.312;2023-09-19T09:09:53;18.90;99.90
33699;DHT22;20032;52.436;13.312;2023-09-19T09:12:19;18.90;99.90
33699;DHT22;20032;52.436;13.312;2023-09-19T09:14:46;18.90;99.90
33699;DHT22;20032;52.436;13.312;2023-09-19T09:17:14;19.00;99.90
33699;DHT22;20032;52.436;13.312;2023-09-19T09:19:40;18.90;99.90
33699;DHT22;20032;52.436;13.312;2023-09-19T09:22:08;19.00;99.90
33699;DHT22;20032;52.436;13.312;2023-09-19T09:24:34;19.20;99.90
33699;DHT22;20032;52.436;13.312;2023-09-19T09:27:03;19.30;99.90
33699;DHT22;20032;52.436;13.312;2023-09-19T09:29:47;19.50;99.90
33699;DHT22;20032;52.436;13.312;2023-09-19T09:32:19;19.70;99.90
33699;DHT22;20032;52.436;13.312;2023-09-19T09:34:46;19.80;99.90
33699;DHT22;20032;52.436;13.312;2023-09-19T09:37:15;19.70;99.90
33699;DHT22;20032;52.436;13.312;2023-09-19T09:39:49;19.50;99.90
33699;DHT22;20032;52.436;13.312;2023-09-19T09:45:13;19.10;99.90
33699;DHT22;20032;52.436;13.312;2023-09-19T09:47:44;19.00;99.90
33699;DHT22;20032;52.436;13.312;2023-09-19T09:50:35;19.00;99.90
33699;DHT22;20032;52.436;13.312;2023-09-19T09:53:30;19.00;99.90
33699;DHT22;20032;52.436;13.312;2023-09-19T09:56:06;19.20;99.90
33699;DHT22;20032;52.436;13.312;2023-09-19T09:58:34;19.50;99.90
33699;DHT22;20032;52.436;13.312;2023-09-19T10:01:01;19.80;99.90
33699;DHT22;20032;52.436;13.312;2023-09-19T10:03:37;20.10;99.90
33699;DHT22;20032;52.436;13.312;2023-09-19T10:06:11;20.20;99.90
33699;DHT22;20032;52.436;13.312;2023-09-19T10:09:07;20.30;99.90
33699;DHT22;20032;52.436;13.312;2023-09-19T10:11:44;20.10;99.90
33699;DHT22;20032;52.436;13.312;2023-09-19T10:14:12;20.10;99.90
33699;DHT22;20032;52.436;13.312;2023-09-19T10:16:41;20.00;99.90
33699;DHT22;20032;52.436;13.312;2023-09-19T10:19:10;20.00;99.90
33699;DHT22;20032;52.436;13.312;2023-09-19T10:21:36;19.90;99.90
33699;DHT22;20032;52.436;13.312;2023-09-19T10:24:05;19.80;99.90
33699;DHT22;20032;52.436;13.312;2023-09-19T10:26:35;19.60;99.90
33699;DHT22;20032;52.436;13.312;2023-09-19T10:29:01;19.70;99.90
33699;DHT22;20032;52.436;13.312;2023-09-19T10:31:29;19.80;99.90
33699;DHT22;20032;52.436;13.312;2023-09-19T10:34:03;20.20;99.90
33699;DHT22;20032;52.436;13.312;2023-09-19T10:36:32;20.40;99.90
33699;DHT22;20032;52.436;13.312;2023-09-19T10:39:02;20.70;99.90
33699;DHT22;20032;52.436;13.312;2023-09-19T10:41:31;20.90;99.90
33699;DHT22;20032;52.436;13.312;2023-09-19T10:44:02;21.10;99.90
33699;DHT22;20032;52.436;13.312;2023-09-19T10:46:28;21.20;99.90
33699;DHT22;20032;52.436;13.312;2023-09-19T10:48:59;21.10;99.90
33699;DHT22;20032;52.436;13.312;2023-09-19T10:51:26;21.10;99.90
33699;DHT22;20032;52.436;13.312;2023-09-19T10:53:58;21.10;99.90
33699;DHT22;20032;52.436;13.312;2023-09-19T10:56:29;21.00;99.90
33699;DHT22;20032;52.436;13.312;2023-09-19T10:59:15;21.00;99.90
33699;DHT22;20032;52.436;13.312;2023-09-19T11:01:45;21.30;99.90
33699;DHT22;20032;52.436;13.312;2023-09-19T11:04:28;21.40;99.90
33699;DHT22;20032;52.436;13.312;2023-09-19T11:09:54;21.60;99.80
33699;DHT22;20032;52.436;13.312;2023-09-19T11:15:02;22.00;99.40
33699;DHT22;20032;52.436;13.312;2023-09-19T11:17:38;22.00;99.50
33699;DHT22;20032;52.436;13.312;2023-09-19T11:23:25;22.20;97.70
33699;DHT22;20032;52.436;13.312;2023-09-19T11:25:42;22.40;97.90
33699;DHT22;20032;52.436;13.312;2023-09-19T11:30:44;22.40;97.10
33699;DHT22;20032;52.436;13.312;2023-09-19T11:36:10;22.40;97.20
33699;DHT22;20032;52.436;13.312;2023-09-19T11:41:40;22.40;96.90
33699;DHT22;20032;52.436;13.312;2023-09-19T11:46:54;22.20;96.90
33699;DHT22;20032;52.436;13.312;2023-09-19T11:49:30;22.10;97.60
33699;DHT22;20032;52.436;13.312;2023-09-19T11:51:58;22.00;97.20
33699;DHT22;20032;52.436;13.312;2023-09-19T11:54:27;22.10;96.90
33699;DHT22;20032;52.436;13.312;2023-09-19T11:56:57;22.30;96.20
33699;DHT22;20032;52.436;13.312;2023-09-19T11:59:25;22.30;96.40
33699;DHT22;20032;52.436;13.312;2023-09-19T12:01:55;22.10;95.90
33699;DHT22;20032;52.436;13.312;2023-09-19T12:04:41;22.00;96.10
33699;DHT22;20032;52.436;13.312;2023-09-19T12:07:13;22.10;96.60
33699;DHT22;20032;52.436;13.312;2023-09-19T12:09:43;22.10;96.60
33699;DHT22;20032;52.436;13.312;2023-09-19T12:12:10;22.30;96.30
33699;DHT22;20032;52.436;13.312;2023-09-19T12:14:38;22.40;95.60
33699;DHT22;20032;52.436;13.312;2023-09-19T12:17:04;22.30;95.20
33699;DHT22;20032;52.436;13.312;2023-09-19T12:19:30;22.40;95.30
33699;DHT22;20032;52.436;13.312;2023-09-19T12:21:58;22.40;95.20
33699;DHT22;20032;52.436;13.312;2023-09-19T12:24:26;22.50;95.20
33699;DHT22;20032;52.436;13.312;2023-09-19T12:26:59;22.50;94.80
33699;DHT22;20032;52.436;13.312;2023-09-19T12:29:29;22.40;94.80
33699;DHT22;20032;52.436;13.312;2023-09-19T12:31:57;22.60;94.70
33699;DHT22;20032;52.436;13.312;2023-09-19T12:34:24;22.90;94.80
33699;DHT22;20032;52.436;13.312;2023-09-19T12:37:13;23.40;94.50
33699;DHT22;20032;52.436;13.312;2023-09-19T12:39:46;23.50;93.20
33699;DHT22;20032;52.436;13.312;2023-09-19T12:42:17;23.80;92.80
33699;DHT22;20032;52.436;13.312;2023-09-19T12:44:45;23.90;92.70
33699;DHT22;20032;52.436;13.312;2023-09-19T12:47:14;24.00;92.50
33699;DHT22;20032;52.436;13.312;2023-09-19T12:50:09;23.90;93.00
33699;DHT22;20032;52.436;13.312;2023-09-19T12:52:41;23.80;92.90
33699;DHT22;20032;52.436;13.312;2023-09-19T12:55:07;23.60;92.80
33699;DHT22;20032;52.436;13.312;2023-09-19T12:57:34;23.50;92.80
33699;DHT22;20032;52.436;13.312;2023-09-19T13:00:02;23.60;92.70
33699;DHT22;20032;52.436;13.312;2023-09-19T13:02:31;23.40;93.10
33699;DHT22;20032;52.436;13.312;2023-09-19T13:04:56;23.30;93.20
33699;DHT22;20032;52.436;13.312;2023-09-19T13:07:45;23.00;93.30
33699;DHT22;20032;52.436;13.312;2023-09-19T13:10:12;22.90;93.90
33699;DHT22;20032;52.436;13.312;2023-09-19T13:12:42;23.20;93.80
33699;DHT22;20032;52.436;13.312;2023-09-19T13:15:13;23.10;93.00
33699;DHT22;20032;52.436;13.312;2023-09-19T13:17:46;22.70;93.30
33699;DHT22;20032;52.436;13.312;2023-09-19T13:20:21;22.70;93.80
33699;DHT22;20032;52.436;13.312;2023-09-19T13:22:52;22.90;94.10
33699;DHT22;20032;52.436;13.312;2023-09-19T13:25:25;23.10;93.80
33699;DHT22;20032;52.436;13.312;2023-09-19T13:27:53;23.20;93.20
33699;DHT22;20032;52.436;13.312;2023-09-19T13:30:23;22.90;93.90
33699;DHT22;20032;52.436;13.312;2023-09-19T13:32:50;22.80;94.00
33699;DHT22;20032;52.436;13.312;2023-09-19T13:35:16;22.80;94.50
33699;DHT22;20032;52.436;13.312;2023-09-19T13:37:42;22.60;94.10
33699;DHT22;20032;52.436;13.312;2023-09-19T13:40:12;22.30;94.60
33699;DHT22;20032;52.436;13.312;2023-09-19T13:42:38;22.00;94.70
33699;DHT22;20032;52.436;13.312;2023-09-19T13:45:05;21.80;94.60
33699;DHT22;20032;52.436;13.312;2023-09-19T13:47:31;21.90;95.30
33699;DHT22;20032;52.436;13.312;2023-09-19T13:49:58;22.00;95.10
33699;DHT22;20032;52.436;13.312;2023-09-19T13:52:23;21.90;94.90
33699;DHT22;20032;52.436;13.312;2023-09-19T13:54:50;22.10;95.20
33699;DHT22;20032;52.436;13.312;2023-09-19T13:57:16;22.10;94.60
33699;DHT22;20032;52.436;13.312;2023-09-19T13:59:42;22.10;94.90
33699;DHT22;20032;52.436;13.312;2023-09-19T14:02:07;22.10;95.10
33699;DHT22;20032;52.436;13.312;2023-09-19T14:04:33;22.40;95.20
33699;DHT22;20032;52.436;13.312;2023-09-19T14:07:00;22.30;94.30
33699;DHT22;20032;52.436;13.312;2023-09-19T14:09:26;22.30;94.50
33699;DHT22;20032;52.436;13.312;2023-09-19T14:11:51;22.40;94.50
33699;DHT22;20032;52.436;13.312;2023-09-19T14:14:18;22.20;94.30
33699;DHT22;20032;52.436;13.312;2023-09-19T14:16:46;22.20;94.90
33699;DHT22;20032;52.436;13.312;2023-09-19T14:19:11;22.00;94.60
33699;DHT22;20032;52.436;13.312;2023-09-19T14:21:37;22.00;95.00
33699;DHT22;20032;52.436;13.312;2023-09-19T14:24:04;21.80;95.30
33699;DHT22;20032;52.436;13.312;2023-09-19T14:26:34;21.80;95.40
33699;DHT22;20032;52.436;13.312;2023-09-19T14:29:00;21.80;95.40
33699;DHT22;20032;52.436;13.312;2023-09-19T14:31:25;21.80;95.50
33699;DHT22;20032;52.436;13.312;2023-09-19T14:33:54;21.80;95.40
33699;DHT22;20032;52.436;13.312;2023-09-19T14:36:21;21.70;95.80
33699;DHT22;20032;52.436;13.312;2023-09-19T14:38:47;21.60;94.70
33699;DHT22;20032;52.436;13.312;2023-09-19T14:41:12;21.50;95.20
33699;DHT22;20032;52.436;13.312;2023-09-19T14:43:38;21.50;95.40
33699;DHT22;20032;52.436;13.312;2023-09-19T14:46:04;21.60;95.50
33699;DHT22;20032;52.436;13.312;2023-09-19T14:48:30;21.50;95.50
33699;DHT22;20032;52.436;13.312;2023-09-19T14:51:02;21.60;96.00
33699;DHT22;20032;52.436;13.312;2023-09-19T14:53:28;21.50;94.80
33699;DHT22;20032;52.436;13.312;2023-09-19T14:55:53;21.60;95.10
33699;DHT22;20032;52.436;13.312;2023-09-19T14:58:20;21.70;94.70
33699;DHT22;20032;52.436;13.312;2023-09-19T15:00:47;21.50;95.00
33699;DHT22;20032;52.436;13.312;2023-09-19T15:03:12;21.40;94.90
33699;DHT22;20032;52.436;13.312;2023-09-19T15:05:39;21.40;94.80
33699;DHT22;20032;52.436;13.312;2023-09-19T15:08:05;21.40;94.90
33699;DHT22;20032;52.436;13.312;2023-09-19T15:10:31;21.20;95.30
33699;DHT22;20032;52.436;13.312;2023-09-19T15:12:56;21.20;95.40
33699;DHT22;20032;52.436;13.312;2023-09-19T15:15:22;21.30;95.20
33699;DHT22;20032;52.436;13.312;2023-09-19T15:17:47;21.20;95.30
33699;DHT22;20032;52.436;13.312;2023-09-19T15:20:13;21.20;95.30
33699;DHT22;20032;52.436;13.312;2023-09-19T15:22:39;21.30;95.60
33699;DHT22;20032;52.436;13.312;2023-09-19T15:25:05;21.20;95.90
33699;DHT22;20032;52.436;13.312;2023-09-19T15:27:31;21.20;96.00
33699;DHT22;20032;52.436;13.312;2023-09-19T15:29:58;21.20;95.90
33699;DHT22;20032;52.436;13.312;2023-09-19T15:32:24;21.20;96.00
33699;DHT22;20032;52.436;13.312;2023-09-19T15:34:50;21.20;96.40
33699;DHT22;20032;52.436;13.312;2023-09-19T15:37:15;21.30;96.20
33699;DHT22;20032;52.436;13.312;2023-09-19T15:39:41;21.40;96.10
33699;DHT22;20032;52.436;13.312;2023-09-19T15:42:07;21.30;96.30
33699;DHT22;20032;52.436;13.312;2023-09-19T15:44:32;21.30;96.40
33699;DHT22;20032;52.436;13.312;2023-09-19T15:46:58;21.30;96.40
33699;DHT22;20032;52.436;13.312;2023-09-19T15:49:24;21.30;96.60